AirNav   Everest Fuels
 
 1423 users online  

82PA Frame Field Airport
Candor, Pennsylvania, USA

GOING TO CANDOR?


FAA INFORMATION EFFECTIVE 30 DECEMBER 2021

Location

FAA Identifier: 82PA
Lat/Long: 40-23-48.0000N 080-18-19.0000W
40-23.800000N 080-18.316667W
40.3966667,-80.3052778
(estimated)
Elevation: 1210 ft. / 369 m (estimated)
Variation: 07W (1985)
Time zone: UTC -5 (UTC -4 during Daylight Saving Time)
Zip code: 15019

Airport Operations

Airport use: Private use. Permission required prior to landing
Activation date: 09/1969
Control tower: no
ARTCC: CLEVELAND CENTER
FSS: ALTOONA FLIGHT SERVICE STATION
Attendance: IREG
Wind indicator: yes
Segmented circle: no

Airport Communications

WX ASOS at PIT (7 nm NE): PHONE 412-472-0145
WX AWOS-A at 42PN (14 nm E): PHONE 412-442-2213
WX AWOS-3PT at AFJ (16 nm S): 119.175 (724-228-3529)
WX ASOS at AGC (17 nm E): 120.55 (412-466-8968)
WX AWOS-2 at 2G2 (18 nm W): 121.625 (740-275-4862)

Nearby radio navigation aids

VOR radial/distance  VOR name  Freq  Var
AGCr309/14.0ALLEGHENY VOR/DME110.0009W
HLGr063/14.6WHEELING VOR/DME112.2007W
EWCr197/26.0ELLWOOD CITY VOR/DME115.8008W
AIRr053/32.7BELLAIRE VOR/DME117.1007W

 
NDB name  Hdg/Dist  Freq  Var  ID
CADIZ080/33.823907WCFX -.-. ..-. -..-
CASTLE181/37.927209WUCP ..- -.-. .--.

Airport Services

Airframe service: NONE
Powerplant service: NONE

Runway Information

Runway 12/30

Dimensions: 1200 x 200 ft. / 366 x 61 m
Surface: turf
RUNWAY 12  RUNWAY 30
Traffic pattern: leftleft
Obstructions: nonepline

Airport Ownership and Management from official FAA records

Ownership: Privately-owned
Owner: ROBERT R. FRAME
838 MIDWAY-CANDOR RDBX 157
BULGER, PA 15019
Phone 412-796-4935
Manager: ROBERT R. FRAME
838 MIDWAY-CANDOR RD, BX 157
BULGER, PA 15019
Phone 412-796-4935

Additional Remarks

FOR CD CTC PITTSBURGH APCH AT 412-472-5591

Instrument Procedures

There are no published instrument procedures at 82PA.

Some nearby airports with instrument procedures:

KPIT - Pittsburgh International Airport (7 nm NE)
KAFJ - Washington County Airport (16 nm S)
G05 - Finleyville Airpark (16 nm SE)
KAGC - Allegheny County Airport (17 nm E)
2G2 - Jefferson County Airpark (18 nm W)
 
Loc | Ops | Rwys | IFR | FBO | Links
Com | Nav | Svcs | Stats | Notes
Area around 82PA (Frame Field Airport)
 
Road maps at: MapQuest Bing Google
 
Aerial photo
No photo
 
Sectional chart

 
Airport distance calculator
Flying to Frame Field Airport? Find the distance to fly.

From to 82PA

Sunrise and sunset
Times for 19-Jan-2022
 Local
(UTC-5)
 Zulu
(UTC)
Morning civil twilight07:1212:12
Sunrise07:4112:41
Sunset17:2322:23
Evening civil twilight17:5222:52

Current date and time
Zulu (UTC)  19-Jan-2022 18:39:55
Local (UTC-5)  19-Jan-2022 13:39:55
 
METAR
KPIT 
6nm N 
191751Z 22015G24KT 10SM FEW028 SCT150 SCT250 07/M01 A2990 RMK AO2 SLP141 T00671011 10067 20022 58008
KAFJ 
17nm S 
191756Z AUTO 23010G18KT 10SM FEW042 07/M01 A2995 RMK AO2 SLP151 T00671006 10072 20039 58010
KAGC 
18nm E 
191753Z 22014G26KT 10SM OVC055 07/M01 A2990 RMK AO2 PK WND 22027/1720 SLP140 T00671011 10067 20011 58011
TAF
KPIT 
6nm N 
191120Z 1912/2018 20008KT P6SM BKN100 WS020/22040KT FM191400 23010G22KT P6SM BKN035 FM191800 23009G20KT P6SM OVC015 FM200000 32012KT 6SM -SNRA BR OVC007 FM200300 33008KT 6SM -SHSN OVC015 FM201200 33008KT P6SM BKN025
KAGC 
18nm E 
191720Z 1918/2018 22010G26KT P6SM OVC025 FM200300 32011KT 6SM -SHRASN OVC015 FM200800 33009KT P6SM -SHSN OVC020 FM201100 34007KT P6SM BKN025 FM201600 35008KT P6SM SCT035
NOTAMs
Click for the latest NOTAMs
NOTAMs are issued by the DoD/FAA and will open in a separate window not controlled by AirNav.

 

 
 

Would you like to see your business listed on this page?

 If your business provides an interesting product or service to pilots, flight crews, aircraft, or users of the Frame Field Airport, you should consider listing it here.  To start the listing process, click on the button below
 
Add a business
 

Other Pages about Frame Field Airport

Update a link
 
Copyright © AirNav, LLC. All rights reserved. Privacy Policy  Contact